• Join FlightAware (Why Join?)
  • Login
  • US Flag 
10:04PM EDT


 

Airport Tracker/Info


-or-


 

Live Flight TrackerFlight Track Log ✈ N829BW ✈ 18-Aug-2014 ✈ KEWB - KPVD

Flight Track Log - Related Links

Times and Time Zones

All times are in EDT time to prevent confusion due to time zone crossing. See the N829BW flight status page for this flight to view local times or setup timezone preferences in your user account.

Time Position Orientation Groundspeed Altitude Reporting Facility
EDT Latitude Longitude Course Direction KTS MPH feet Rate Location/Type
05:50PM 41.6942 -71.0725 283° West 85 98 2,700  Level Boston Center
05:50PM 41.6972 -71.0778 308° West 83 96 2,800 300 Climbing Boston Center
05:51PM 41.7003 -71.1139 276° West 90 104 3,100 120 Climbing Boston Center
05:52PM 41.6937 -71.1973 277° West  Level FlightAware Approximate
05:52PM 41.7042 -71.1475 279° West 91 105 3,100  Level Boston Center
05:53PM 41.6975 -71.2387 277° West  Level FlightAware Approximate
05:53PM 41.7089 -71.1872 279° West 96 110 3,000  Level Boston Center
05:53PM 41.7081 -71.1958 263° West 101 116 3,000 60 Level Boston Center
05:54PM 41.7000 -71.2802 270° West  Level FlightAware Approximate
05:54PM 41.7036 -71.2203 256° West 96 110 3,100  Level Boston Center
05:54PM 41.6942 -71.2225 190° South 104 120 3,000  Descending Boston Center
05:55PM 41.7008 -71.3217 283° West  Level FlightAware Approximate
05:55PM 41.6783 -71.2253 187° South 105 121 3,100  Level Boston Center
05:55PM 41.6744 -71.2264 192° South 103 119 3,100 -120 Level Boston Center
05:56PM 41.6483 -71.2347 193° South 113 130 3,000 -120 Descending Boston Center
05:56PM 41.6428 -71.2386 208° Southwest 108 124 3,000  Level Boston Center
05:57PM 41.6228 -71.2542 210° Southwest 101 116 3,000 60 Level Boston Center
05:57PM 41.6181 -71.2592 218° Southwest 107 123 3,100 360 Climbing Boston Center
05:58PM 41.6003 -71.2806 222° Southwest 97 112 3,400 240 Climbing Boston Center
05:58PM 41.5983 -71.2867 247° West 100 115 3,400 60 Level Boston Center
05:59PM 41.5825 -71.3144 233° Southwest 103 119 3,500  Climbing Boston Center
06:00PM 41.5692 -71.3472 241° Southwest 104 120 3,500 60 Level Boston Center
06:00PM 41.5675 -71.3522 246° West 101 116 3,600 60 Climbing Boston Center
06:01PM 41.5586 -71.3778 245° Southwest 98 113 3,600 -120 Level Boston Center
06:01PM 41.5578 -71.3908 265° West 102 117 3,500 -120 Descending Boston Center
06:02PM 41.5550 -71.4167 262° West 106 122 3,500 -240 Level Boston Center
06:02PM 41.5578 -71.4297 286° West 103 119 3,300 -420 Descending Boston Center
06:03PM 41.5650 -71.4633 286° West 98 113 3,000 -180 Descending Boston Center
06:04PM 41.5536 -71.4953 245° Southwest 105 121 3,000  Level Boston Center
06:05PM 41.5508 -71.5217 262° West 87 100 3,000  Level Boston Center
06:05PM 41.5528 -71.5294 288° West 96 110 3,000 -180 Level Boston Center
06:06PM 41.5553 -71.5519 278° West 93 107 2,900 -240 Descending Boston Center
06:06PM 41.5653 -71.5556 345° North 97 112 2,800 -240 Descending Boston Center
06:07PM 41.5797 -71.5494 18° North 94 108 2,700 -240 Descending Boston Center
06:07PM 41.5903 -71.5400 34° Northeast 93 107 2,600 -240 Descending Boston Center
06:08PM 41.6011 -71.5286 38° Northeast 99 114 2,500 -240 Descending Boston Center
06:08PM 41.6133 -71.5192 30° Northeast 96 110 2,400 -300 Descending Boston Center
06:09PM 41.6247 -71.5083 35° Northeast 98 113 2,200 -540 Descending Boston Center
06:09PM 41.6386 -71.4986 28° Northeast 96 110 1,900 -540 Descending Boston Center
06:10PM 41.6478 -71.4908 32° Northeast 91 105 1,700 -540 Descending Boston Center
06:10PM 41.6589 -71.4822 30° Northeast 86 99 1,400 -600 Descending Boston Center
06:11PM 41.6683 -71.4753 29° Northeast 82 94 1,100 -540 Descending Boston Center
06:11PM 41.6783 -71.4664 34° Northeast 84 97 900 -480 Descending Boston Center
06:12PM 41.6894 -71.4569 32° Northeast 83 96 600 -540 Descending Boston Center
06:12PM 41.6986 -71.4478 37° Northeast 83 96 400 -420 Descending Boston Center
06:13PM 41.7078 -71.4408 29° Northeast 83 96 200 60 Descending Boston Center
06:13PM 41.7186 -71.4319 31° Northeast 83 96 500 720 Climbing Boston Center
06:14PM 41.7264 -71.4244 36° Northeast 88 101 900 780 Climbing Boston Center
06:14PM 41.7289 -71.4031 81° East 95 109 1,300 540 Climbing Boston Center
06:15PM 41.7250 -71.3892 111° Southeast 99 114 1,500 540 Climbing Boston Center
06:15PM 41.7236 -71.3692 95° East 96 110 1,900 420 Climbing Boston Center
06:16PM 41.7200 -71.3500 104° East 100 115 2,000 180 Climbing Boston Center
06:17PM 41.7164 -71.3300 104° East 107 123 2,100 60 Climbing Boston Center
06:17PM 41.6986 -71.3278 175° South 113 130 2,100  Level Boston Center
06:18PM 41.6867 -71.3406 219° Southwest 111 128 2,100  Level Boston Center
06:18PM 41.6744 -71.3506 211° Southwest 104 120 2,100 -120 Level Boston Center
06:19PM 41.6628 -71.3644 222° Southwest 110 127 2,000 -240 Descending Boston Center
06:19PM 41.6497 -71.3764 214° Southwest 108 124 1,900  Descending Boston Center
06:20PM 41.6383 -71.3875 216° Southwest 110 127 2,000 120 Climbing Boston Center
06:20PM 41.6147 -71.4097 215° Southwest 104 120 2,100  Climbing Boston Center
06:21PM 41.5906 -71.4325 215° Southwest 108 124 2,100  Level Boston Center
06:22PM 41.5883 -71.4358 228° Southwest 108 124 2,100  Level Boston Center
06:22PM 41.5783 -71.4511 229° Southwest 101 116 2,100  Level Boston Center
06:23PM 41.5769 -71.4681 264° West 104 120 2,100  Level Boston Center
06:23PM 41.5822 -71.4842 294° West 87 100 2,100 -120 Level Boston Center
06:24PM 41.5903 -71.5006 303° West 94 108 2,000 -120 Descending Boston Center
06:24PM 41.6006 -71.5111 322° Northwest 88 101 2,000 60 Level Boston Center
06:25PM 41.6117 -71.5064 18° North 92 106 2,100 60 Climbing Boston Center
06:25PM 41.6231 -71.4961 34° Northeast 96 110 2,100  Level Boston Center
06:26PM 41.6358 -71.4861 30° Northeast 92 106 2,100 -120 Level Boston Center
06:26PM 41.6461 -71.4786 29° Northeast 92 106 2,000 -300 Descending Boston Center
06:27PM 41.6608 -71.4717 19° North 96 110 1,800 -420 Descending Boston Center
06:27PM 41.6725 -71.4653 22° Northeast 99 114 1,600 -720 Descending Boston Center
06:28PM 41.6850 -71.4544 33° Northeast 96 110 1,100 -1,020 Descending Boston Center
06:28PM 41.6956 -71.4478 25° Northeast 92 106 600 -600 Descending Boston Center
06:29PM 41.7100 -71.4394 23° Northeast 96 110 500 60 Descending Boston Center
06:29PM 41.7206 -71.4308 31° Northeast 97 112 700 540 Climbing Boston Center
06:30PM 41.7306 -71.4175 45° Northeast 97 112 1,100 660 Climbing Boston Center
06:30PM 41.7308 -71.4028 89° East 97 112 1,400 540 Climbing Boston Center
06:31PM 41.7344 -71.3786 79° East 98 113 1,700 420 Climbing Boston Center
06:31PM 41.7358 -71.3672 81° East 104 120 1,800 360 Climbing Boston Center
06:32PM 41.7264 -71.3292 108° East 114 131 2,200 120 Climbing Boston Center
06:33PM 41.7117 -71.3117 138° Southeast 109 125 2,100 -240 Descending Boston Center
06:33PM 41.7033 -71.3036 144° Southeast 113 130 2,000 -120 Descending Boston Center
06:34PM 41.6856 -71.2811 137° Southeast 113 130 2,000  Level Boston Center
06:34PM 41.6772 -71.2739 147° Southeast 117 135 2,000  Level Boston Center
06:35PM 41.6614 -71.2539 137° Southeast 114 131 2,000 60 Level Boston Center
06:35PM 41.6547 -71.2456 137° Southeast 111 128 2,100 180 Climbing Boston Center
06:36PM 41.6389 -71.2239 134° Southeast 114 131 2,200 180 Climbing Boston Center
06:36PM 41.6306 -71.2167 147° Southeast 113 130 2,300  Climbing Boston Center
06:37PM 41.6144 -71.1936 133° Southeast 114 131 2,200 -120 Descending Boston Center
06:37PM 41.6081 -71.1886 150° Southeast 113 130 2,200 -180 Level Boston Center
06:38PM 41.5869 -71.1550 130° Southeast 112 129 2,000 -60 Descending Boston Center
06:39PM 41.5725 -71.1314 129° Southeast 113 130 2,100 60 Climbing Boston Center
06:39PM 41.5669 -71.1247 138° Southeast 111 128 2,100  Level Boston Center
06:40PM 41.5417 -71.1014 145° Southeast 108 124 2,100 -60 Level Boston Center
06:41PM 41.5192 -71.1061 189° South 110 127 2,000  Descending Boston Center
06:42PM 41.5000 -71.1150 199° South 109 125 2,100 60 Climbing Boston Center
06:42PM 41.4911 -71.1172 191° South 108 124 2,100  Level Boston Center
06:43PM 41.4733 -71.1286 206° Southwest 101 116 2,100  Level Boston Center
06:43PM 41.4775 -71.1431 291° West 101 116 2,100  Level Boston Center
06:43PM 41.4808 -71.1456 331° Northwest 87 100 2,100  Level Boston Center
06:44PM 41.5014 -71.1356 20° North 96 110 2,100  Level Boston Center
06:44PM 41.5028 -71.1333 50° Northeast 96 110 2,100  Level Boston Center
06:45PM 41.5236 -71.1175 30° Northeast 95 109 2,100  Level Boston Center
06:46PM 41.5314 -71.1092 39° Northeast 92 106 2,100 -120 Level Boston Center
06:46PM 41.5483 -71.0972 28° Northeast 95 109 2,000 -240 Descending Boston Center
06:47PM 41.5686 -71.0719 43° Northeast 97 112 1,700 -240 Descending Boston Center
06:48PM 41.5897 -71.0494 39° Northeast 98 113 1,600 -120 Descending Boston Center
06:49PM 41.5919 -71.0447 58° Northeast 98 113 1,600 60 Level Boston Center
06:49PM 41.6125 -71.0258 34° Northeast 97 112 1,700 -240 Climbing Boston Center
06:50PM 41.6297 -71.0094 35° Northeast 80 92 1,200 -480 Descending Boston Center
06:51PM 41.6436 -70.9911 45° Northeast 78 90 800 -300 Descending Boston Center
06:52PM 41.6633 -70.9750 31° Northeast 75 86 700 -120 Descending Boston Center
06:53PM 41.6592 -70.9681 129° Southeast 89 102 700 -240 Level Boston Center
06:53PM 41.6622 -70.9458 80° East 77 89 500 -300 Descending Boston Center
06:54PM 41.6658 -70.9444 16° North 71 82 400 -240 Descending Boston Center
06:54PM 41.6797 -70.9433 North 68 78 300 -180 Descending Boston Center